Time;durP1;ratioP1;P1;durP2;ratioP2;P2;SDS_P1;SDS_P2;PMS_P1;PMS_P2;Temp;Humidity;BMP_temperature;BMP_pressure;BME280_temperature;BME280_humidity;BME280_pressure;Samples;Min_cycle;Max_cycle;Signal;HPM_P1;HPM_P2
2022/11/17 05:07:09;;;;;;;18.08;11.25;;;;;;;;;;5223295;23;19922;-66
2022/11/17 05:09:36;;;;;;;17.75;11.57;;;;;;;;;;4953028;28;20042;-65
2022/11/17 05:14:47;;;;;;;19.35;11.50;;;;;;;;;;4953718;29;20034;-62
2022/11/17 05:17:14;;;;;;;19.13;11.18;;;;;;;;;;4935937;29;20027;-63
2022/11/17 05:19:43;;;;;;;17.80;11.23;;;;;;;;;;4952258;29;20471;-62
2022/11/17 05:24:54;;;;;;;21.27;13.43;;;;;;;;;;4953053;29;20502;-62
2022/11/17 05:27:21;;;;;;;20.58;13.23;;;;;;;;;;4953087;29;20035;-61
2022/11/17 05:29:47;;;;;;;21.40;13.55;;;;;;;;;;4952925;29;20046;-61
2022/11/17 05:32:13;;;;;;;23.40;14.65;;;;;;;;;;4952703;29;20035;-62
2022/11/17 05:34:39;;;;;;;24.27;14.60;;;;;;;;;;4935572;29;20031;-61
2022/11/17 05:37:05;;;;;;;25.85;15.15;;;;;;;;;;4953092;29;20480;-61
2022/11/17 05:39:31;;;;;;;25.95;15.50;;;;;;;;;;4953068;29;20510;-66
2022/11/17 05:41:57;;;;;;;26.90;16.40;;;;;;;;;;4953045;29;20118;-62
2022/11/17 05:44:23;;;;;;;26.33;16.17;;;;;;;;;;4952897;29;20015;-61
2022/11/17 05:46:49;;;;;;;26.38;15.20;;;;;;;;;;4953102;29;20046;-61
2022/11/17 05:49:15;;;;;;;27.23;16.40;;;;;;;;;;4952631;29;20353;-62
2022/11/17 05:51:41;;;;;;;22.52;14.30;;;;;;;;;;4952911;29;20395;-61
2022/11/17 05:54:07;;;;;;;21.92;14.07;;;;;;;;;;4952868;29;20137;-62
2022/11/17 05:56:41;;;;;;;27.40;15.20;;;;;;;;;;4952893;29;20190;-67
2022/11/17 05:59:20;;;;;;;27.92;14.77;;;;;;;;;;4952795;29;20489;-62
2022/11/17 06:02:04;;;;;;;26.20;14.80;;;;;;;;;;4952811;29;20031;-63
2022/11/17 06:04:30;;;;;;;26.63;15.32;;;;;;;;;;4952579;29;20131;-62
2022/11/17 06:06:58;;;;;;;25.10;14.75;;;;;;;;;;4952686;28;20550;-61
2022/11/17 06:09:25;;;;;;;25.25;15.32;;;;;;;;;;4952596;29;20082;-67
2022/11/17 06:11:51;;;;;;;26.27;14.88;;;;;;;;;;4952558;29;20111;-62
2022/11/17 06:14:17;;;;;;;31.13;18.05;;;;;;;;;;4952663;29;20511;-65
2022/11/17 06:16:44;;;;;;;33.67;17.45;;;;;;;;;;4952737;29;20035;-61
2022/11/17 06:19:15;;;;;;;32.55;16.92;;;;;;;;;;4952624;29;20039;-62
2022/11/17 06:21:41;;;;;;;30.90;17.83;;;;;;;;;;4954708;28;20027;-61
2022/11/17 06:24:08;;;;;;;30.98;17.63;;;;;;;;;;4956194;29;20028;-62
2022/11/17 06:26:34;;;;;;;30.65;17.05;;;;;;;;;;4956302;29;20059;-61
2022/11/17 06:29:02;;;;;;;30.67;17.45;;;;;;;;;;4955947;29;20183;-61
2022/11/17 06:31:28;;;;;;;38.35;19.10;;;;;;;;;;4956158;29;20051;-61
2022/11/17 06:33:55;;;;;;;36.40;20.25;;;;;;;;;;4956627;29;20039;-62
2022/11/17 06:36:21;;;;;;;36.83;20.15;;;;;;;;;;4956264;29;20130;-64
2022/11/17 06:38:47;;;;;;;41.33;22.42;;;;;;;;;;4957720;28;20043;-62
2022/11/17 06:41:13;;;;;;;38.53;21.35;;;;;;;;;;4962435;28;20031;-61
2022/11/17 06:43:39;;;;;;;39.22;20.80;;;;;;;;;;4955658;29;20102;-61
2022/11/17 06:46:05;;;;;;;40.45;20.08;;;;;;;;;;4956462;28;20201;-62
2022/11/17 06:48:34;;;;;;;37.00;20.05;;;;;;;;;;4962755;28;20045;-62
2022/11/17 06:51:01;;;;;;;34.63;19.40;;;;;;;;;;4964432;28;20037;-61
2022/11/17 06:53:27;;;;;;;31.55;19.05;;;;;;;;;;4964464;28;20531;-61
2022/11/17 06:56:09;;;;;;;51.08;27.50;;;;;;;;;;4960967;28;20027;-60
2022/11/17 06:58:36;;;;;;;38.20;20.17;;;;;;;;;;4954678;29;20446;-61
2022/11/17 07:01:04;;;;;;;34.20;18.17;;;;;;;;;;4955078;29;20034;-61
2022/11/17 07:03:30;;;;;;;29.75;16.75;;;;;;;;;;4955553;29;20031;-61
2022/11/17 07:05:59;;;;;;;31.52;17.58;;;;;;;;;;4957253;28;20162;-60
2022/11/17 07:08:25;;;;;;;30.83;16.95;;;;;;;;;;4954245;28;20047;-64
2022/11/17 07:10:53;;;;;;;29.83;16.92;;;;;;;;;;4955540;29;20471;-60
2022/11/17 07:13:22;;;;;;;26.63;15.70;;;;;;;;;;4955212;29;20510;-61
2022/11/17 07:15:49;;;;;;;31.35;16.73;;;;;;;;;;4955926;29;20029;-64
2022/11/17 07:18:16;;;;;;;29.00;16.33;;;;;;;;;;4954703;29;20035;-61
2022/11/17 07:20:42;;;;;;;28.42;16.63;;;;;;;;;;4955209;29;20417;-61
2022/11/17 07:23:08;;;;;;;25.65;15.57;;;;;;;;;;4955000;29;20375;-64
2022/11/17 07:25:34;;;;;;;27.30;15.13;;;;;;;;;;4954741;29;20031;-61
2022/11/17 07:28:00;;;;;;;28.42;14.98;;;;;;;;;;4954737;28;20538;-59
2022/11/17 07:30:26;;;;;;;26.42;14.63;;;;;;;;;;4966482;28;20118;-59
2022/11/17 07:32:52;;;;;;;25.23;14.35;;;;;;;;;;4959212;28;20039;-63
2022/11/17 07:35:18;;;;;;;25.17;14.40;;;;;;;;;;4946067;28;20533;-59
2022/11/17 07:37:44;;;;;;;26.50;13.82;;;;;;;;;;4963885;28;20112;-62
2022/11/17 07:40:10;;;;;;;27.42;14.80;;;;;;;;;;4959519;28;20027;-59
2022/11/17 07:42:37;;;;;;;26.40;14.68;;;;;;;;;;4956666;28;20023;-59
2022/11/17 07:45:03;;;;;;;25.80;13.82;;;;;;;;;;4963749;28;20696;-59
2022/11/17 07:47:29;;;;;;;26.13;13.60;;;;;;;;;;4959522;28;20034;-60
2022/11/17 07:49:55;;;;;;;24.02;14.20;;;;;;;;;;4964043;28;20034;-59
2022/11/17 07:52:21;;;;;;;24.77;14.70;;;;;;;;;;4962591;28;20046;-62
2022/11/17 07:54:47;;;;;;;26.75;14.75;;;;;;;;;;4962135;28;20026;-60
2022/11/17 07:57:13;;;;;;;28.80;15.35;;;;;;;;;;4959257;28;20119;-60
2022/11/17 07:59:39;;;;;;;23.50;14.57;;;;;;;;;;4963123;28;20023;-61
2022/11/17 08:02:05;;;;;;;22.30;14.10;;;;;;;;;;4962256;28;20086;-60
2022/11/17 08:04:31;;;;;;;27.45;15.13;;;;;;;;;;4962286;28;20122;-62
2022/11/17 08:06:57;;;;;;;27.98;14.93;;;;;;;;;;4961877;28;20074;-68
2022/11/17 08:09:23;;;;;;;24.58;13.60;;;;;;;;;;4961609;28;20050;-59
2022/11/17 08:11:50;;;;;;;27.58;16.00;;;;;;;;;;4963712;28;20038;-60
2022/11/17 08:14:16;;;;;;;24.23;14.50;;;;;;;;;;4962191;28;20015;-63
2022/11/17 08:16:42;;;;;;;26.80;13.85;;;;;;;;;;4955534;28;20019;-59
2022/11/17 08:19:10;;;;;;;26.42;15.25;;;;;;;;;;4963595;28;20519;-69
2022/11/17 08:21:37;;;;;;;25.50;14.65;;;;;;;;;;4963056;28;20062;-59
2022/11/17 08:24:03;;;;;;;26.38;14.18;;;;;;;;;;4960493;28;20082;-62
2022/11/17 08:26:29;;;;;;;24.85;14.30;;;;;;;;;;4962881;28;20035;-66
2022/11/17 08:28:57;;;;;;;27.80;14.68;;;;;;;;;;4962467;28;20074;-68
2022/11/17 08:31:23;;;;;;;25.98;14.60;;;;;;;;;;4961188;28;20037;-60
2022/11/17 08:33:49;;;;;;;26.75;14.57;;;;;;;;;;4961130;28;20743;-69
2022/11/17 08:36:15;;;;;;;24.67;13.90;;;;;;;;;;4961128;28;20417;-64
2022/11/17 08:38:41;;;;;;;26.08;14.13;;;;;;;;;;4962063;28;20466;-60
2022/11/17 08:41:09;;;;;;;25.67;14.35;;;;;;;;;;4967413;28;20035;-64
2022/11/17 08:43:35;;;;;;;28.58;14.48;;;;;;;;;;4961887;28;20011;-61
2022/11/17 08:46:01;;;;;;;23.80;13.95;;;;;;;;;;4960493;28;20506;-68
2022/11/17 08:48:30;;;;;;;23.52;13.10;;;;;;;;;;4945747;28;20105;-63
2022/11/17 08:50:56;;;;;;;24.52;13.57;;;;;;;;;;4961273;28;20399;-60
2022/11/17 08:53:22;;;;;;;24.10;13.80;;;;;;;;;;4961489;28;20061;-61
2022/11/17 08:55:49;;;;;;;23.52;13.98;;;;;;;;;;4959339;28;20024;-62
2022/11/17 08:58:15;;;;;;;26.70;15.20;;;;;;;;;;4963688;28;20114;-64
2022/11/17 09:00:41;;;;;;;27.10;15.35;;;;;;;;;;4954717;28;20486;-61
2022/11/17 09:03:08;;;;;;;25.88;15.07;;;;;;;;;;4966629;28;20085;-60
2022/11/17 09:06:05;;;;;;;25.63;15.00;;;;;;;;;;4970070;28;20085;-66
2022/11/17 09:08:31;;;;;;;26.45;15.73;;;;;;;;;;4898653;29;20950;-63
2022/11/17 09:10:58;;;;;;;23.10;14.82;;;;;;;;;;4901195;29;20150;-60
2022/11/17 09:13:24;;;;;;;24.15;15.07;;;;;;;;;;4902131;29;20040;-66
2022/11/17 09:15:50;;;;;;;24.67;15.18;;;;;;;;;;4902377;29;20032;-60
2022/11/17 09:18:16;;;;;;;23.70;14.48;;;;;;;;;;4900541;29;20040;-67
2022/11/17 09:20:42;;;;;;;24.95;14.25;;;;;;;;;;4902996;29;20153;-61
2022/11/17 09:23:08;;;;;;;26.75;15.45;;;;;;;;;;4898774;29;20239;-68
2022/11/17 09:25:34;;;;;;;27.52;15.02;;;;;;;;;;4898619;29;20069;-60
2022/11/17 09:28:00;;;;;;;27.25;15.60;;;;;;;;;;4905240;29;20032;-60
2022/11/17 09:30:26;;;;;;;26.50;15.52;;;;;;;;;;4902090;29;20040;-60
2022/11/17 09:32:52;;;;;;;24.25;14.60;;;;;;;;;;4900874;29;20548;-66
2022/11/17 09:35:19;;;;;;;26.60;15.15;;;;;;;;;;4908819;29;20040;-64
2022/11/17 09:37:45;;;;;;;27.05;15.32;;;;;;;;;;4911848;29;20052;-64
2022/11/17 09:40:15;;;;;;;26.92;15.15;;;;;;;;;;4912367;29;20071;-64
2022/11/17 09:42:41;;;;;;;25.10;14.60;;;;;;;;;;4912435;29;20135;-63
2022/11/17 09:45:22;;;;;;;23.58;14.55;;;;;;;;;;4930371;29;20158;-63
2022/11/17 09:47:57;;;;;;;21.60;13.30;;;;;;;;;;4953087;29;20583;-63
2022/11/17 09:50:33;;;;;;;20.55;12.55;;;;;;;;;;4952496;29;20039;-65
2022/11/17 09:53:05;;;;;;;22.35;12.80;;;;;;;;;;4952281;29;20046;-66
2022/11/17 09:55:31;;;;;;;;;;;;;;;;;;4954117;28;20054;-65
2022/11/17 09:58:03;;;;;;;20.15;12.00;;;;;;;;;;4959086;29;19938;-63
2022/11/17 10:00:31;;;;;;;21.25;12.35;;;;;;;;;;4959164;29;20031;-64
2022/11/17 10:02:57;;;;;;;23.00;12.75;;;;;;;;;;4959261;28;20053;-63
2022/11/17 10:05:30;;;;;;;22.63;12.80;;;;;;;;;;4959064;28;20499;-64
2022/11/17 10:07:59;;;;;;;22.65;11.50;;;;;;;;;;4958662;28;20079;-63
2022/11/17 10:10:33;;;;;;;19.38;11.10;;;;;;;;;;4959202;29;20507;-62
2022/11/17 10:13:01;;;;;;;18.73;11.75;;;;;;;;;;4958956;28;20053;-64
2022/11/17 10:15:29;;;;;;;22.88;11.90;;;;;;;;;;4958792;28;20028;-64
2022/11/17 10:17:55;;;;;;;22.17;12.98;;;;;;;;;;4958893;29;20128;-65
2022/11/17 10:20:21;;;;;;;20.02;11.05;;;;;;;;;;4959128;28;20100;-64
2022/11/17 10:22:48;;;;;;;22.67;13.55;;;;;;;;;;4958983;29;20038;-64
2022/11/17 10:25:21;;;;;;;24.52;13.05;;;;;;;;;;4941703;29;20043;-66
2022/11/17 10:27:53;;;;;;;22.67;12.23;;;;;;;;;;4959157;28;20479;-64
2022/11/17 10:30:19;;;;;;;21.13;12.85;;;;;;;;;;4959102;28;20408;-66
2022/11/17 10:33:03;;;;;;;21.58;12.30;;;;;;;;;;4958684;29;20446;-66
2022/11/17 10:35:33;;;;;;;19.42;12.38;;;;;;;;;;4941057;29;20404;-64
2022/11/17 10:38:16;;;;;;;23.00;12.25;;;;;;;;;;4958873;28;20396;-64
2022/11/17 10:40:42;;;;;;;;;;;;;;;;;;4959461;29;20423;-64
2022/11/17 10:43:11;;;;;;;19.70;11.95;;;;;;;;;;4958554;29;19917;-66
2022/11/17 10:45:37;;;;;;;20.08;11.80;;;;;;;;;;4958596;28;20031;-63
2022/11/17 10:48:15;;;;;;;21.00;12.10;;;;;;;;;;4958180;29;20023;-64
2022/11/17 10:50:50;;;;;;;23.42;13.30;;;;;;;;;;4958018;29;20428;-64
2022/11/17 10:53:27;;;;;;;20.27;12.35;;;;;;;;;;4958292;29;20360;-64
2022/11/17 10:56:02;;;;;;;24.02;13.10;;;;;;;;;;4957946;29;20038;-65
2022/11/17 10:58:29;;;;;;;23.17;12.88;;;;;;;;;;4957899;28;20118;-63
2022/11/17 11:01:02;;;;;;;21.45;12.77;;;;;;;;;;4958370;28;20030;-64
2022/11/17 11:03:34;;;;;;;22.65;12.27;;;;;;;;;;4957776;28;20424;-63
2022/11/17 11:06:02;;;;;;;24.60;12.52;;;;;;;;;;4957826;28;20118;-62
2022/11/17 11:08:48;;;;;;;19.30;11.48;;;;;;;;;;4954787;28;20047;-62
2022/11/17 11:11:20;;;;;;;19.20;11.63;;;;;;;;;;4858057;29;20103;-64
2022/11/17 11:13:55;;;;;;;19.75;11.88;;;;;;;;;;4858668;29;20045;-63
2022/11/17 11:16:23;;;;;;;21.55;10.82;;;;;;;;;;4861956;29;20112;-67
2022/11/17 11:18:50;;;;;;;18.70;11.30;;;;;;;;;;4877569;29;20120;-64
2022/11/17 11:21:36;;;;;;;19.77;11.63;;;;;;;;;;4877603;29;20457;-67
2022/11/17 11:24:08;;;;;;;19.13;11.75;;;;;;;;;;4877173;29;20033;-66
2022/11/17 11:26:34;;;;;;;17.95;11.13;;;;;;;;;;4877322;29;20036;-65
2022/11/17 11:29:12;;;;;;;18.98;11.30;;;;;;;;;;4877628;29;20037;-66
2022/11/17 11:31:47;;;;;;;19.02;10.10;;;;;;;;;;4876886;29;20060;-66
2022/11/17 11:34:21;;;;;;;18.00;10.52;;;;;;;;;;4877433;29;20033;-67
2022/11/17 11:36:55;;;;;;;21.67;11.85;;;;;;;;;;4876394;29;20085;-64
2022/11/17 11:39:24;;;;;;;20.73;12.57;;;;;;;;;;4876674;29;20029;-65
2022/11/17 11:41:59;;;;;;;19.58;10.77;;;;;;;;;;4876338;29;20048;-64
2022/11/17 11:44:43;;;;;;;22.02;11.52;;;;;;;;;;4876633;29;20466;-66
2022/11/17 11:47:28;;;;;;;17.20;10.38;;;;;;;;;;4877719;29;20106;-65
2022/11/17 11:49:57;;;;;;;16.92;9.80;;;;;;;;;;4966275;28;20479;-64
2022/11/17 11:52:45;;;;;;;17.33;10.48;;;;;;;;;;4955847;28;20798;-65
2022/11/17 11:55:18;;;;;;;18.20;10.25;;;;;;;;;;4956000;28;20397;-65
2022/11/17 11:57:49;;;;;;;15.38;9.30;;;;;;;;;;4973610;28;20031;-65
2022/11/17 12:00:16;;;;;;;15.18;8.82;;;;;;;;;;4973922;28;20030;-67
2022/11/17 12:02:45;;;;;;;14.55;8.85;;;;;;;;;;4956437;28;20398;-66
2022/11/17 12:05:18;;;;;;;17.08;9.75;;;;;;;;;;4973937;28;20521;-65
2022/11/17 12:08:02;;;;;;;14.65;9.10;;;;;;;;;;4973310;28;20063;-67
2022/11/17 12:10:34;;;;;;;15.40;9.85;;;;;;;;;;4972932;28;20023;-64
2022/11/17 12:13:01;;;;;;;17.45;9.55;;;;;;;;;;4973094;28;20041;-64
2022/11/17 12:15:27;;;;;;;14.65;9.63;;;;;;;;;;4973656;28;20371;-67
2022/11/17 12:17:57;;;;;;;16.77;9.20;;;;;;;;;;4972647;28;20093;-66
2022/11/17 12:20:38;;;;;;;21.38;11.20;;;;;;;;;;4973182;28;20030;-63
2022/11/17 12:23:04;;;;;;;17.13;10.27;;;;;;;;;;4973652;28;20026;-67
2022/11/17 12:25:33;;;;;;;16.15;9.15;;;;;;;;;;4973325;28;20042;-64
2022/11/17 12:28:17;;;;;;;14.45;9.27;;;;;;;;;;4973254;28;20154;-64
2022/11/17 12:30:43;;;;;;;16.38;9.05;;;;;;;;;;4973184;28;20023;-64
2022/11/17 12:33:09;;;;;;;13.55;8.35;;;;;;;;;;4972534;28;20035;-66
2022/11/17 12:35:36;;;;;;;12.40;7.75;;;;;;;;;;4973027;28;20497;-65
2022/11/17 12:38:22;;;;;;;13.57;8.02;;;;;;;;;;4973268;28;20050;-65
2022/11/17 12:40:49;;;;;;;14.40;8.90;;;;;;;;;;4959751;28;20503;-66
2022/11/17 12:43:16;;;;;;;16.13;9.68;;;;;;;;;;4972467;28;20074;-66
2022/11/17 12:45:51;;;;;;;13.80;8.75;;;;;;;;;;4972486;28;20041;-66
2022/11/17 12:48:18;;;;;;;15.18;8.80;;;;;;;;;;4972803;28;20058;-67
2022/11/17 12:50:48;;;;;;;14.90;8.68;;;;;;;;;;4969373;28;20033;-67
2022/11/17 12:53:16;;;;;;;12.13;7.45;;;;;;;;;;4959450;28;20074;-64
2022/11/17 12:55:41;;;;;;;13.32;7.18;;;;;;;;;;4953727;28;20023;-64
2022/11/17 12:58:20;;;;;;;15.10;7.88;;;;;;;;;;4944782;28;20027;-67
2022/11/17 13:00:55;;;;;;;14.57;8.13;;;;;;;;;;4961944;28;20559;-65
2022/11/17 13:03:34;;;;;;;14.30;8.23;;;;;;;;;;4957886;28;20542;-67
2022/11/17 13:06:10;;;;;;;17.95;12.15;;;;;;;;;;4961302;28;20058;-65
2022/11/17 13:08:37;;;;;;;17.40;9.13;;;;;;;;;;4953027;28;20052;-67
2022/11/17 13:11:04;;;;;;;14.27;8.55;;;;;;;;;;4953388;29;20038;-65
2022/11/17 13:13:30;;;;;;;15.65;9.82;;;;;;;;;;4953299;29;20173;-64
2022/11/17 13:15:58;;;;;;;16.65;9.23;;;;;;;;;;4953218;29;20114;-67
2022/11/17 13:18:31;;;;;;;16.40;9.82;;;;;;;;;;4953200;29;20031;-65
2022/11/17 13:20:58;;;;;;;18.10;10.43;;;;;;;;;;4933977;29;20035;-65
2022/11/17 13:23:30;;;;;;;15.13;9.25;;;;;;;;;;4934151;29;20079;-65
2022/11/17 13:26:09;;;;;;;15.77;10.27;;;;;;;;;;4933919;29;20054;-66
2022/11/17 13:28:35;;;;;;;15.48;10.13;;;;;;;;;;4933834;29;20106;-64
2022/11/17 13:31:01;;;;;;;15.65;10.13;;;;;;;;;;4933485;29;20027;-67
2022/11/17 13:33:28;;;;;;;17.33;10.15;;;;;;;;;;4933696;29;20483;-65
2022/11/17 13:36:07;;;;;;;18.45;9.75;;;;;;;;;;4933657;29;20117;-66
2022/11/17 13:38:33;;;;;;;16.10;9.32;;;;;;;;;;4934029;29;20028;-66
2022/11/17 13:41:00;;;;;;;15.02;8.98;;;;;;;;;;4933595;29;20036;-65
2022/11/17 13:43:27;;;;;;;15.93;9.85;;;;;;;;;;4933898;29;20483;-65
2022/11/17 13:45:54;;;;;;;14.45;8.85;;;;;;;;;;4932799;29;20038;-64
2022/11/17 13:48:33;;;;;;;14.45;9.32;;;;;;;;;;4932163;29;20064;-66
2022/11/17 13:51:18;;;;;;;14.50;9.60;;;;;;;;;;4932744;29;20031;-65
2022/11/17 13:53:46;;;;;;;18.30;9.38;;;;;;;;;;4933386;29;20091;-67
2022/11/17 13:56:30;;;;;;;18.73;9.02;;;;;;;;;;4933711;29;20106;-65
2022/11/17 13:58:57;;;;;;;16.67;9.85;;;;;;;;;;4933333;29;20402;-69
2022/11/17 14:01:27;;;;;;;15.98;9.77;;;;;;;;;;4933347;29;20115;-66
2022/11/17 14:04:11;;;;;;;19.60;12.18;;;;;;;;;;4933426;29;20035;-65
2022/11/17 14:06:55;;;;;;;23.27;15.43;;;;;;;;;;4932853;29;20036;-66
2022/11/17 14:09:21;;;;;;;27.48;18.58;;;;;;;;;;4936696;28;20027;-63
2022/11/17 14:11:47;;;;;;;20.77;13.48;;;;;;;;;;4959730;28;20155;-66
2022/11/17 14:14:14;;;;;;;19.80;12.05;;;;;;;;;;4971829;28;20530;-66
2022/11/17 14:16:41;;;;;;;23.90;13.43;;;;;;;;;;4971447;28;20109;-63
2022/11/17 14:19:16;;;;;;;23.05;12.85;;;;;;;;;;4971416;28;20046;-65
2022/11/17 14:22:02;;;;;;;19.75;12.88;;;;;;;;;;4970857;28;20511;-64
2022/11/17 14:24:29;;;;;;;23.13;14.48;;;;;;;;;;4970981;28;20034;-65
2022/11/17 14:26:56;;;;;;;21.02;12.07;;;;;;;;;;4971407;28;20118;-68
2022/11/17 14:29:22;;;;;;;16.30;9.40;;;;;;;;;;4971392;28;20027;-64
2022/11/17 14:31:48;;;;;;;17.73;9.85;;;;;;;;;;4971824;28;20038;-62
2022/11/17 14:34:14;;;;;;;18.58;10.77;;;;;;;;;;4971787;28;20034;-63
2022/11/17 14:36:40;;;;;;;19.90;11.52;;;;;;;;;;4957181;28;20046;-62
2022/11/17 14:39:17;;;;;;;18.63;11.20;;;;;;;;;;4962960;28;20030;-62
2022/11/17 14:41:44;;;;;;;32.00;18.65;;;;;;;;;;4961069;28;20488;-65
2022/11/17 14:44:10;;;;;;;37.22;21.08;;;;;;;;;;4965218;28;20402;-64
2022/11/17 14:46:36;;;;;;;35.80;21.30;;;;;;;;;;4972533;28;20046;-64
2022/11/17 14:49:02;;;;;;;34.58;20.05;;;;;;;;;;4964532;28;20027;-64
2022/11/17 14:51:28;;;;;;;34.45;20.00;;;;;;;;;;4963749;28;20031;-64
2022/11/17 14:53:54;;;;;;;36.15;20.88;;;;;;;;;;4963215;28;20402;-65
2022/11/17 14:56:21;;;;;;;37.20;21.02;;;;;;;;;;4960130;28;20031;-63
2022/11/17 14:58:48;;;;;;;37.22;20.65;;;;;;;;;;4966017;28;20039;-63
2022/11/17 15:01:18;;;;;;;42.45;21.55;;;;;;;;;;4964611;28;20390;-64
2022/11/17 15:03:45;;;;;;;43.03;22.42;;;;;;;;;;4964559;28;20023;-63
2022/11/17 15:06:12;;;;;;;51.30;22.25;;;;;;;;;;4962253;28;20070;-66
2022/11/17 15:08:38;;;;;;;49.10;24.85;;;;;;;;;;4971069;28;20073;-63
2022/11/17 15:11:05;;;;;;;56.45;26.73;;;;;;;;;;4974670;28;20031;-64
2022/11/17 15:13:31;;;;;;;59.45;30.08;;;;;;;;;;4974589;28;20483;-63
2022/11/17 15:16:01;;;;;;;55.35;29.05;;;;;;;;;;4972403;28;20398;-63
2022/11/17 15:18:27;;;;;;;59.92;29.90;;;;;;;;;;4954879;29;20039;-63
2022/11/17 15:21:00;;;;;;;64.70;31.20;;;;;;;;;;4955216;29;20034;-64
2022/11/17 15:23:26;;;;;;;62.40;30.30;;;;;;;;;;4955175;29;20077;-65
2022/11/17 15:25:52;;;;;;;59.38;30.25;;;;;;;;;;4955115;29;20027;-65
2022/11/17 15:28:18;;;;;;;53.85;27.70;;;;;;;;;;4953772;29;20031;-64
2022/11/17 15:30:44;;;;;;;50.05;27.60;;;;;;;;;;4954754;29;20034;-63
2022/11/17 15:33:10;;;;;;;46.55;25.85;;;;;;;;;;4954970;29;20039;-66
2022/11/17 15:35:36;;;;;;;50.42;27.17;;;;;;;;;;4955142;29;20102;-67
2022/11/17 15:38:02;;;;;;;39.35;22.77;;;;;;;;;;4954895;29;20416;-63
2022/11/17 15:40:28;;;;;;;41.50;23.40;;;;;;;;;;4955066;29;20083;-65
2022/11/17 15:42:54;;;;;;;43.53;22.52;;;;;;;;;;4955155;29;20023;-64
2022/11/17 15:45:20;;;;;;;36.00;21.73;;;;;;;;;;4954788;29;20035;-64
2022/11/17 15:47:46;;;;;;;39.50;21.95;;;;;;;;;;4954354;29;20027;-65
2022/11/17 15:50:12;;;;;;;46.35;24.52;;;;;;;;;;4954779;29;20033;-64
2022/11/17 15:52:38;;;;;;;44.03;24.40;;;;;;;;;;4954519;29;20074;-67
2022/11/17 15:55:04;;;;;;;55.20;29.75;;;;;;;;;;4954097;28;20353;-67
2022/11/17 15:57:30;;;;;;;55.90;29.25;;;;;;;;;;4954012;29;20075;-65
2022/11/17 15:59:56;;;;;;;65.35;32.90;;;;;;;;;;4954659;29;20047;-65
2022/11/17 16:02:22;;;;;;;64.65;32.97;;;;;;;;;;4954322;29;20055;-64
2022/11/17 16:04:48;;;;;;;73.78;37.58;;;;;;;;;;4954541;29;20074;-66
2022/11/17 16:07:14;;;;;;;70.13;34.58;;;;;;;;;;4954073;28;20106;-65
2022/11/17 16:09:40;;;;;;;74.60;37.03;;;;;;;;;;4954146;29;20428;-66
2022/11/17 16:12:06;;;;;;;76.30;38.40;;;;;;;;;;4954368;29;20538;-62
2022/11/17 16:14:32;;;;;;;87.68;45.80;;;;;;;;;;4954206;29;20027;-63
2022/11/17 16:16:58;;;;;;;81.15;42.72;;;;;;;;;;4953568;29;20032;-62
2022/11/17 16:19:24;;;;;;;78.78;40.30;;;;;;;;;;4953853;29;20147;-64
2022/11/17 16:21:50;;;;;;;83.10;40.53;;;;;;;;;;4954446;29;20070;-63
2022/11/17 16:24:16;;;;;;;76.18;39.83;;;;;;;;;;4954154;29;20132;-63
2022/11/17 16:26:44;;;;;;;73.38;38.83;;;;;;;;;;4954323;29;20035;-67
2022/11/17 16:29:10;;;;;;;78.88;40.38;;;;;;;;;;4954092;29;20034;-64
2022/11/17 16:31:37;;;;;;;75.03;40.22;;;;;;;;;;4953465;29;20633;-64
2022/11/17 16:34:12;;;;;;;79.10;39.38;;;;;;;;;;4969639;29;20018;-62
2022/11/17 16:36:39;;;;;;;75.15;38.97;;;;;;;;;;4960383;29;20066;-67
2022/11/17 16:39:06;;;;;;;81.60;40.80;;;;;;;;;;4953796;29;20028;-65
2022/11/17 16:41:34;;;;;;;71.97;40.50;;;;;;;;;;4953711;29;20074;-65
2022/11/17 16:44:00;;;;;;;77.90;39.97;;;;;;;;;;4954077;29;20495;-65
2022/11/17 16:46:28;;;;;;;75.35;41.42;;;;;;;;;;4953637;29;20479;-64
2022/11/17 16:48:54;;;;;;;80.82;41.75;;;;;;;;;;4953591;29;20047;-63
2022/11/17 16:51:20;;;;;;;80.13;40.03;;;;;;;;;;4953420;29;20114;-63
2022/11/17 16:53:47;;;;;;;74.13;41.08;;;;;;;;;;4959885;28;20035;-63
2022/11/17 16:56:14;;;;;;;77.65;42.60;;;;;;;;;;4958252;28;20035;-62
2022/11/17 16:58:40;;;;;;;81.13;42.70;;;;;;;;;;4961720;28;20115;-63
2022/11/17 17:01:13;;;;;;;77.15;42.47;;;;;;;;;;4960290;28;20023;-62
2022/11/17 17:03:40;;;;;;;85.13;43.63;;;;;;;;;;4953293;29;20101;-61
2022/11/17 17:06:07;;;;;;;85.45;45.10;;;;;;;;;;4952078;28;20058;-67
2022/11/17 17:08:33;;;;;;;89.53;45.05;;;;;;;;;;4949145;28;20051;-61
2022/11/17 17:11:07;;;;;;;88.43;46.00;;;;;;;;;;4933882;29;20019;-65
2022/11/17 17:13:33;;;;;;;90.57;45.92;;;;;;;;;;4933997;29;20066;-61
2022/11/17 17:16:07;;;;;;;84.95;43.83;;;;;;;;;;4934798;29;20173;-64
2022/11/17 17:18:33;;;;;;;85.25;45.47;;;;;;;;;;4953073;29;20035;-62
2022/11/17 17:21:00;;;;;;;82.20;44.33;;;;;;;;;;4936645;29;20019;-62
2022/11/17 17:23:26;;;;;;;85.20;44.20;;;;;;;;;;4935404;29;20046;-62
2022/11/17 17:26:01;;;;;;;76.18;41.10;;;;;;;;;;4952917;29;20030;-63
2022/11/17 17:28:29;;;;;;;68.40;39.20;;;;;;;;;;4953926;29;20031;-62
2022/11/17 17:30:55;;;;;;;76.82;42.50;;;;;;;;;;4953827;29;20031;-62
2022/11/17 17:33:21;;;;;;;82.15;43.88;;;;;;;;;;4952740;29;20039;-66
2022/11/17 17:35:47;;;;;;;82.97;45.05;;;;;;;;;;4953222;29;20490;-63
2022/11/17 17:38:13;;;;;;;83.13;45.72;;;;;;;;;;4953816;29;20490;-63
2022/11/17 17:40:39;;;;;;;83.70;46.30;;;;;;;;;;4955426;29;20023;-61
2022/11/17 17:43:06;;;;;;;86.43;45.08;;;;;;;;;;4936533;29;20082;-62
2022/11/17 17:45:32;;;;;;;86.20;47.45;;;;;;;;;;4953798;29;20134;-65
2022/11/17 17:47:59;;;;;;;71.47;39.53;;;;;;;;;;4954207;29;20066;-62
2022/11/17 17:50:25;;;;;;;78.20;43.13;;;;;;;;;;4952986;29;20450;-66
2022/11/17 17:52:51;;;;;;;74.28;39.92;;;;;;;;;;4952082;29;20039;-63
2022/11/17 17:55:18;;;;;;;65.35;36.83;;;;;;;;;;4935157;29;20384;-61
2022/11/17 17:57:44;;;;;;;68.88;37.17;;;;;;;;;;4952046;29;20130;-59
2022/11/17 18:00:10;;;;;;;55.42;31.13;;;;;;;;;;4951094;29;20522;-60
2022/11/17 18:02:36;;;;;;;59.42;34.47;;;;;;;;;;4951707;29;20098;-60
2022/11/17 18:05:02;;;;;;;58.33;32.65;;;;;;;;;;4951165;29;20423;-66
2022/11/17 18:07:28;;;;;;;56.85;32.55;;;;;;;;;;4950686;28;20691;-67
2022/11/17 18:09:54;;;;;;;60.45;33.45;;;;;;;;;;4952994;29;20502;-66
2022/11/17 18:12:20;;;;;;;59.47;34.58;;;;;;;;;;4950977;29;20666;-59
2022/11/17 18:14:46;;;;;;;61.00;33.42;;;;;;;;;;4951774;29;20468;-67
2022/11/17 18:17:13;;;;;;;64.97;35.10;;;;;;;;;;4952935;28;20110;-66
2022/11/17 18:19:39;;;;;;;62.50;36.13;;;;;;;;;;4955781;29;20028;-68
2022/11/17 18:22:05;;;;;;;60.03;32.25;;;;;;;;;;4956758;29;20050;-64
2022/11/17 18:24:31;;;;;;;56.22;30.00;;;;;;;;;;4956424;29;20019;-64
2022/11/17 18:26:57;;;;;;;59.90;32.13;;;;;;;;;;4956541;29;20039;-65
2022/11/17 18:29:23;;;;;;;59.90;31.25;;;;;;;;;;4956243;29;20027;-65
2022/11/17 18:31:49;;;;;;;55.92;32.03;;;;;;;;;;4956208;29;20035;-63
2022/11/17 18:34:15;;;;;;;52.60;30.45;;;;;;;;;;4956255;29;20034;-67
2022/11/17 18:36:41;;;;;;;50.17;31.52;;;;;;;;;;4955750;29;20031;-66
2022/11/17 18:39:08;;;;;;;49.22;29.95;;;;;;;;;;4955816;29;20501;-66
2022/11/17 18:41:35;;;;;;;54.60;32.55;;;;;;;;;;4955935;29;20077;-66
2022/11/17 18:44:01;;;;;;;63.53;35.13;;;;;;;;;;4955645;29;20140;-60
2022/11/17 18:46:29;;;;;;;69.07;37.33;;;;;;;;;;4955012;29;20020;-66
2022/11/17 18:48:55;;;;;;;67.20;36.58;;;;;;;;;;4955878;29;20027;-65
2022/11/17 18:51:22;;;;;;;74.00;40.95;;;;;;;;;;4955601;29;20080;-66
2022/11/17 18:53:50;;;;;;;88.50;45.65;;;;;;;;;;4963020;28;20038;-66
2022/11/17 18:56:18;;;;;;;82.78;46.00;;;;;;;;;;4962982;28;20027;-63
2022/11/17 18:58:44;;;;;;;92.53;49.47;;;;;;;;;;4955708;29;20526;-66
2022/11/17 19:01:12;;;;;;;88.53;48.65;;;;;;;;;;4955630;29;20024;-65
2022/11/17 19:03:39;;;;;;;90.32;47.92;;;;;;;;;;4955305;29;20046;-61
2022/11/17 19:06:06;;;;;;;110.00;61.42;;;;;;;;;;4974400;28;20395;-66
2022/11/17 19:08:32;;;;;;;84.43;47.63;;;;;;;;;;4974782;28;20498;-67
2022/11/17 19:10:59;;;;;;;73.82;40.10;;;;;;;;;;4975180;28;20062;-67
2022/11/17 19:13:25;;;;;;;78.22;41.45;;;;;;;;;;4974839;28;20030;-70
2022/11/17 19:15:52;;;;;;;81.78;45.78;;;;;;;;;;4974839;28;20031;-67
2022/11/17 19:18:19;;;;;;;71.90;40.42;;;;;;;;;;4955551;28;20487;-65
2022/11/17 19:20:45;;;;;;;61.03;34.97;;;;;;;;;;4955279;29;20067;-63
2022/11/17 19:23:11;;;;;;;50.67;30.63;;;;;;;;;;4955329;29;20034;-64
2022/11/17 19:25:39;;;;;;;53.38;31.80;;;;;;;;;;4955315;29;20502;-68
2022/11/17 19:28:05;;;;;;;62.55;38.13;;;;;;;;;;4954736;28;20035;-67
2022/11/17 19:30:31;;;;;;;60.47;35.13;;;;;;;;;;4954338;29;20471;-64
2022/11/17 19:32:57;;;;;;;55.58;35.00;;;;;;;;;;4955055;29;20218;-64
2022/11/17 19:35:24;;;;;;;42.42;26.17;;;;;;;;;;4955569;29;20094;-67
2022/11/17 19:37:50;;;;;;;40.83;25.25;;;;;;;;;;4954697;29;20027;-60